Lamco Airport

Jump to: basic info | weather | comments

Related pages: nearby airports | nearby navaids | notams | map

Basic information (top)

Codes: UCN GLLB
Location: lon 5.867000, lat -10.050000, elev 30 ft / 9 m msl
Status: small_airport
Scheduled airline service: no
Links: Wikipedia Mobile

Weather (top)

Current conditions for Roberts International Airport 29nm (53km) NW (rec'd 2014/09/18 09:30Z):

GLRB 180930Z 00000KT 9999 BKN012 25/24 Q1015 NOSIG

Airport forecast for Roberts International Airport 29nm (53km) NW (rec'd 2014/09/18 06:54Z):

TAF TAF GLRB 180400Z 1806/1912 25012KT 7000 RA/TSRA SCT004 BKN014 FEW023CB 
      TEMPO 1807/1812 24010KT 8000 
      BECMG 1813/1815 21007KT 9999 BKN016 FEW025CB

Latest comments (top)

No comments yet for Lamco Airport

More... (top)

See also NOTAMs and nearby airports and navaids, or visit the Lamco Airport page at the main OurAirports website..